Time;durP1;ratioP1;P1;durP2;ratioP2;P2;SDS_P1;SDS_P2;PMS_P1;PMS_P2;Temp;Humidity;BMP_temperature;BMP_pressure;BME280_temperature;BME280_humidity;BME280_pressure;Samples;Min_cycle;Max_cycle;Signal;HPM_P1;HPM_P2
2022/03/26 00:02:08;;;;;;;37.63;19.98;;;-0.90;99.90;;;;;;5038665;28;20059;-86
2022/03/26 00:04:35;;;;;;;43.42;19.90;;;-0.90;99.90;;;;;;5039037;28;20099;-86
2022/03/26 00:07:03;;;;;;;37.85;19.48;;;-1.10;99.90;;;;;;5038621;28;20493;-86
2022/03/26 00:09:29;;;;;;;39.45;20.15;;;-1.10;99.90;;;;;;5038532;28;20059;-86
2022/03/26 00:11:56;;;;;;;45.65;21.10;;;-1.10;99.90;;;;;;5038559;28;20049;-87
2022/03/26 00:14:24;;;;;;;40.25;20.02;;;-1.20;99.90;;;;;;5038757;28;20049;-86
2022/03/26 00:16:51;;;;;;;41.35;20.48;;;-1.20;99.90;;;;;;5056271;28;20049;-87
2022/03/26 00:19:18;;;;;;;43.20;19.63;;;-1.20;99.90;;;;;;5056138;28;20045;-85
2022/03/26 00:21:47;;;;;;;39.47;20.05;;;-1.10;99.90;;;;;;5056012;28;20087;-87
2022/03/26 00:24:14;;;;;;;42.72;20.70;;;-1.20;99.90;;;;;;5063517;28;20109;-87
2022/03/26 00:26:41;;;;;;;38.40;20.33;;;-1.30;99.90;;;;;;5045899;28;20076;-87
2022/03/26 00:29:08;;;;;;;42.67;20.50;;;-1.30;99.90;;;;;;5038674;28;20436;-86
2022/03/26 00:31:37;;;;;;;39.35;20.95;;;-1.30;99.90;;;;;;5038577;28;20139;-86
2022/03/26 00:34:05;;;;;;;42.67;20.80;;;-1.20;99.90;;;;;;5038476;28;20048;-86
2022/03/26 00:36:32;;;;;;;37.92;20.35;;;-1.20;99.90;;;;;;5038473;28;20051;-86
2022/03/26 00:38:59;;;;;;;44.20;19.45;;;-1.20;99.90;;;;;;5038295;28;20420;-87
2022/03/26 00:41:28;;;;;;;36.78;20.05;;;-1.20;99.90;;;;;;5055548;28;20055;-87
2022/03/26 00:43:56;;;;;;;40.10;19.55;;;-1.20;99.90;;;;;;5038381;28;20049;-87
2022/03/26 00:46:24;;;;;;;39.17;20.30;;;-1.30;99.90;;;;;;5055633;28;20071;-87
2022/03/26 00:48:51;;;;;;;37.55;19.65;;;-1.40;99.90;;;;;;5037572;28;20099;-87
2022/03/26 00:51:18;;;;;;;38.97;20.35;;;-1.50;99.90;;;;;;5037610;28;20049;-87
2022/03/26 00:53:45;;;;;;;44.45;21.10;;;-1.50;99.90;;;;;;5038032;28;20055;-87
2022/03/26 00:56:12;;;;;;;40.53;19.73;;;-1.40;99.90;;;;;;5037866;28;20484;-87
2022/03/26 00:58:40;;;;;;;41.03;20.55;;;-1.30;99.90;;;;;;5055799;28;20053;-88
2022/03/26 01:01:07;;;;;;;44.30;20.05;;;-1.20;99.90;;;;;;5037746;28;20045;-87
2022/03/26 01:03:34;;;;;;;47.08;22.00;;;-1.30;99.90;;;;;;5037763;28;20049;-87
2022/03/26 01:06:05;;;;;;;40.08;20.02;;;-1.30;99.90;;;;;;5037518;28;20053;-87
2022/03/26 01:08:32;;;;;;;43.90;21.33;;;-1.30;99.90;;;;;;5037927;28;20053;-87
2022/03/26 01:10:59;;;;;;;39.80;20.67;;;-1.30;99.90;;;;;;5037927;28;20051;-88
2022/03/26 01:13:27;;;;;;;44.05;20.75;;;-1.20;99.90;;;;;;5037782;28;20041;-88
2022/03/26 01:15:54;;;;;;;49.58;21.25;;;-1.20;99.90;;;;;;5037157;28;20051;-88
2022/03/26 01:18:22;;;;;;;43.15;21.33;;;-1.30;99.90;;;;;;5037333;28;20059;-88
2022/03/26 01:20:49;;;;;;;44.45;20.50;;;-1.30;99.90;;;;;;5054996;28;20480;-88
2022/03/26 01:23:19;;;;;;;35.70;18.95;;;-1.30;99.90;;;;;;5037517;28;20051;-88
2022/03/26 01:25:46;;;;;;;39.53;19.27;;;-1.40;99.90;;;;;;5037507;28;20114;-88
2022/03/26 01:28:14;;;;;;;42.13;21.02;;;-1.50;99.90;;;;;;5037332;28;20235;-88
2022/03/26 01:30:41;;;;;;;40.08;20.35;;;-1.50;99.90;;;;;;5037117;28;20053;-88
2022/03/26 01:33:08;;;;;;;39.97;19.95;;;-1.50;99.90;;;;;;5037464;28;20091;-88
2022/03/26 01:35:34;;;;;;;44.70;21.27;;;-1.50;99.90;;;;;;5037038;28;20045;-88
2022/03/26 01:38:04;;;;;;;42.88;21.48;;;-1.50;99.90;;;;;;5037563;28;20055;-88
2022/03/26 01:40:32;;;;;;;41.25;21.13;;;-1.60;99.90;;;;;;5050078;28;20059;-88
2022/03/26 01:42:59;;;;;;;42.00;21.35;;;-1.60;99.90;;;;;;5041061;28;20420;-89
2022/03/26 01:45:27;;;;;;;46.55;21.35;;;-1.70;99.90;;;;;;5036863;28;20055;-88
2022/03/26 01:47:58;;;;;;;42.95;20.42;;;-1.70;99.90;;;;;;5054395;28;20056;-88
2022/03/26 01:50:27;;;;;;;43.85;20.70;;;-1.70;99.90;;;;;;5037195;28;20084;-89
2022/03/26 01:52:55;;;;;;;43.63;21.40;;;-1.80;99.90;;;;;;5037228;28;20048;-89
2022/03/26 01:55:23;;;;;;;48.40;21.05;;;-1.80;99.90;;;;;;5036769;28;20049;-89
2022/03/26 01:57:50;;;;;;;47.30;21.90;;;-1.80;99.90;;;;;;5036985;28;20423;-89
2022/03/26 02:00:18;;;;;;;42.58;20.98;;;-1.90;99.90;;;;;;5036974;28;20056;-89
2022/03/26 02:02:44;;;;;;;44.03;22.02;;;-1.90;99.90;;;;;;5037073;28;20052;-89
2022/03/26 02:05:17;;;;;;;45.83;20.90;;;-1.80;99.90;;;;;;5037152;28;20535;-89
2022/03/26 02:07:46;;;;;;;41.92;20.30;;;-1.80;99.90;;;;;;5037012;28;20044;-89
2022/03/26 02:10:15;;;;;;;51.65;20.95;;;-1.90;99.90;;;;;;5036311;28;20049;-89
2022/03/26 02:12:42;;;;;;;47.97;22.42;;;-2.00;99.90;;;;;;5036976;28;20092;-88
2022/03/26 02:15:09;;;;;;;50.30;22.92;;;-1.80;99.90;;;;;;5036471;28;20041;-89
2022/03/26 02:17:37;;;;;;;50.67;21.98;;;-1.70;99.90;;;;;;5036177;28;20053;-89
2022/03/26 02:20:06;;;;;;;43.72;21.27;;;-1.70;99.90;;;;;;5036486;28;20044;-88
2022/03/26 02:22:33;;;;;;;40.78;20.77;;;-1.60;99.90;;;;;;5036441;28;20539;-89
2022/03/26 02:25:01;;;;;;;42.85;20.02;;;-1.70;99.90;;;;;;5036183;28;20099;-89
2022/03/26 02:27:29;;;;;;;41.35;19.83;;;-1.90;99.90;;;;;;5036450;28;20106;-89
2022/03/26 02:29:56;;;;;;;38.05;20.55;;;-1.90;99.90;;;;;;5053893;28;20088;-89
2022/03/26 02:32:26;;;;;;;41.17;21.17;;;-2.00;99.90;;;;;;5053607;28;20045;-89
2022/03/26 02:34:54;;;;;;;46.55;20.50;;;-2.10;99.90;;;;;;5036020;28;20061;-89
2022/03/26 02:37:29;;;;;;;47.20;22.23;;;-2.20;99.90;;;;;;5053767;28;20068;-89
2022/03/26 02:39:55;;;;;;;53.67;21.73;;;-2.20;99.90;;;;;;5036307;28;20053;-90
2022/03/26 02:42:22;;;;;;;44.58;21.60;;;-2.10;99.90;;;;;;5035918;28;20075;-89
2022/03/26 02:44:50;;;;;;;45.05;21.23;;;-2.20;99.90;;;;;;5036331;28;20542;-89
2022/03/26 02:47:18;;;;;;;48.35;22.38;;;-2.20;99.90;;;;;;5035947;28;20060;-89
2022/03/26 02:49:45;;;;;;;47.78;22.45;;;-2.20;99.90;;;;;;5053207;28;20049;-90
2022/03/26 02:52:11;;;;;;;47.15;22.08;;;-2.20;99.90;;;;;;5036042;28;20118;-90
2022/03/26 02:54:38;;;;;;;45.50;21.92;;;-2.10;99.90;;;;;;5037146;28;20053;-90
2022/03/26 02:57:05;;;;;;;40.40;21.35;;;-2.10;99.90;;;;;;5052045;28;20052;-90
2022/03/26 02:59:32;;;;;;;44.00;20.45;;;-2.20;99.90;;;;;;5037351;28;20133;-90
2022/03/26 03:01:59;;;;;;;45.20;20.42;;;-2.20;99.90;;;;;;5035883;28;20555;-90
2022/03/26 03:04:26;;;;;;;41.85;20.70;;;-2.10;99.90;;;;;;5035531;28;20056;-90
2022/03/26 03:06:53;;;;;;;53.05;21.92;;;-2.20;99.90;;;;;;5035735;28;20507;-90
2022/03/26 03:09:20;;;;;;;46.00;21.52;;;-2.30;99.90;;;;;;5035804;28;20126;-90
2022/03/26 03:11:48;;;;;;;48.60;21.88;;;-2.30;99.90;;;;;;5035803;28;20083;-90
2022/03/26 03:14:15;;;;;;;54.72;22.83;;;-2.20;99.90;;;;;;5035732;28;20488;-90
2022/03/26 03:16:42;;;;;;;48.30;22.15;;;-2.20;99.90;;;;;;5035410;28;20048;-91
2022/03/26 03:19:10;;;;;;;43.28;21.67;;;-2.20;99.90;;;;;;5035454;28;20541;-91
2022/03/26 03:21:36;;;;;;;44.95;22.30;;;-2.20;99.90;;;;;;5035493;28;20049;-91
2022/03/26 03:24:03;;;;;;;43.90;21.67;;;-2.30;99.90;;;;;;5035635;28;20469;-91
2022/03/26 03:26:31;;;;;;;48.25;22.77;;;-2.30;99.90;;;;;;5035533;28;20148;-91
2022/03/26 03:28:59;;;;;;;53.92;22.38;;;-2.40;99.90;;;;;;5036156;28;20053;-91
2022/03/26 03:31:28;;;;;;;49.25;22.65;;;-2.40;99.90;;;;;;5039284;28;20541;-91
2022/03/26 03:33:55;;;;;;;48.63;22.38;;;-2.50;99.90;;;;;;5039876;28;20063;-91
2022/03/26 03:36:22;;;;;;;53.20;22.50;;;-2.50;99.90;;;;;;5039439;28;20060;-91
2022/03/26 03:38:49;;;;;;;52.72;23.52;;;-2.50;99.90;;;;;;5039766;28;20055;-91
2022/03/26 03:41:17;;;;;;;51.60;22.25;;;-2.40;99.90;;;;;;5039516;28;20057;-91
2022/03/26 03:43:43;;;;;;;50.00;22.65;;;-2.40;99.90;;;;;;5039501;28;20053;-91
2022/03/26 03:46:10;;;;;;;52.38;23.05;;;-2.40;99.90;;;;;;5039515;28;20065;-91
2022/03/26 03:48:37;;;;;;;49.83;23.17;;;-2.40;99.90;;;;;;5039136;28;20053;-91
2022/03/26 03:51:04;;;;;;;44.20;22.25;;;-2.50;99.90;;;;;;5039331;28;20140;-91
2022/03/26 03:53:31;;;;;;;47.10;22.67;;;-2.50;99.90;;;;;;5039215;28;20136;-91
2022/03/26 03:55:57;;;;;;;47.28;22.45;;;-2.50;99.90;;;;;;5039463;28;20053;-91
2022/03/26 03:58:24;;;;;;;58.13;23.98;;;-2.50;99.90;;;;;;5038914;28;20056;-91
2022/03/26 04:00:54;;;;;;;54.20;23.75;;;-2.50;99.90;;;;;;5039303;28;20053;-91
2022/03/26 04:03:22;;;;;;;58.17;24.17;;;-2.50;99.90;;;;;;5039005;28;20087;-91
2022/03/26 04:05:49;;;;;;;46.85;23.17;;;-2.40;99.90;;;;;;5039123;28;20049;-92
2022/03/26 04:08:16;;;;;;;57.08;23.98;;;-2.40;99.90;;;;;;5038996;28;20053;-91
2022/03/26 04:10:43;;;;;;;49.40;23.33;;;-2.40;99.90;;;;;;5041582;28;20136;-92
2022/03/26 04:13:09;;;;;;;48.35;23.45;;;-2.40;99.90;;;;;;5052213;28;20052;-92
2022/03/26 04:15:36;;;;;;;49.03;22.33;;;-2.40;99.90;;;;;;5040298;28;20135;-92
2022/03/26 04:18:03;;;;;;;58.22;23.83;;;-2.50;99.90;;;;;;5038721;28;20083;-92
2022/03/26 04:20:30;;;;;;;48.13;23.50;;;-2.40;99.90;;;;;;5038776;28;20049;-92
2022/03/26 04:22:57;;;;;;;48.63;22.52;;;-2.50;99.90;;;;;;5038890;28;20144;-92
2022/03/26 04:25:24;;;;;;;51.80;22.13;;;-2.50;99.90;;;;;;5038388;28;20098;-92
2022/03/26 04:27:51;;;;;;;55.15;22.95;;;-2.50;99.90;;;;;;5038313;28;20059;-92
2022/03/26 04:30:18;;;;;;;52.45;22.83;;;-2.60;99.90;;;;;;5038620;28;20140;-92
2022/03/26 04:32:45;;;;;;;52.53;23.42;;;-2.60;99.90;;;;;;5038781;28;20475;-92
2022/03/26 04:35:12;;;;;;;50.13;23.10;;;-2.60;99.90;;;;;;5037975;28;20409;-92
2022/03/26 04:37:39;;;;;;;52.60;23.13;;;-2.50;99.90;;;;;;5038446;28;20084;-91
2022/03/26 04:40:11;;;;;;;58.40;23.05;;;-2.50;99.90;;;;;;5038145;28;20053;-92
2022/03/26 04:42:40;;;;;;;49.72;23.45;;;-2.50;99.90;;;;;;5038056;28;20049;-92
2022/03/26 04:45:07;;;;;;;46.00;22.52;;;-2.60;99.90;;;;;;5038345;28;20135;-92
2022/03/26 04:47:34;;;;;;;49.97;22.33;;;-2.60;99.90;;;;;;5037944;28;20053;-92
2022/03/26 04:50:02;;;;;;;57.47;23.67;;;-2.60;99.90;;;;;;5038185;28;20500;-92
2022/03/26 04:52:28;;;;;;;56.05;23.48;;;-2.70;99.90;;;;;;5038101;28;20139;-92
2022/03/26 04:54:55;;;;;;;52.33;23.42;;;-2.70;99.90;;;;;;5037914;28;20049;-92
2022/03/26 04:57:22;;;;;;;58.38;26.27;;;-2.70;99.90;;;;;;5038049;28;20053;-92
2022/03/26 04:59:49;;;;;;;59.00;26.95;;;-2.70;99.90;;;;;;5038166;28;20056;-92
2022/03/26 05:02:15;;;;;;;55.55;25.13;;;-2.80;99.90;;;;;;5037927;28;20148;-92
2022/03/26 05:04:42;;;;;;;55.88;25.67;;;-2.70;99.90;;;;;;5038073;28;20134;-92
2022/03/26 05:09:55;;;;;;;51.50;23.83;;;-2.80;99.90;;;;;;5055643;28;20051;-92
2022/03/26 05:12:22;;;;;;;59.28;24.35;;;-2.80;99.90;;;;;;5037891;28;20049;-92
2022/03/26 05:14:49;;;;;;;66.93;26.35;;;-2.80;99.90;;;;;;5038185;28;20048;-92
2022/03/26 05:17:16;;;;;;;65.13;27.13;;;-2.80;99.90;;;;;;5037986;28;20139;-92
2022/03/26 05:19:42;;;;;;;67.03;27.00;;;-2.70;99.90;;;;;;5037678;28;20482;-92
2022/03/26 05:22:09;;;;;;;62.05;25.67;;;-2.70;99.90;;;;;;5037752;28;20406;-92
2022/03/26 05:24:36;;;;;;;74.82;28.83;;;-2.60;99.90;;;;;;5038029;28;20125;-90
2022/03/26 05:27:03;;;;;;;60.50;27.38;;;-2.60;99.90;;;;;;5050223;28;20581;-90
2022/03/26 05:29:30;;;;;;;68.47;26.95;;;-2.60;99.90;;;;;;5047862;28;20044;-91
2022/03/26 05:31:57;;;;;;;63.28;27.27;;;-2.60;99.90;;;;;;5037321;28;20045;-91
2022/03/26 05:34:23;;;;;;;71.93;28.20;;;-2.50;99.90;;;;;;5037141;28;20515;-92
2022/03/26 05:36:50;;;;;;;71.05;29.30;;;-2.40;99.90;;;;;;5036939;28;20069;-90
2022/03/26 05:39:17;;;;;;;68.40;27.65;;;-2.30;99.90;;;;;;5037296;28;20049;-90
2022/03/26 05:41:44;;;;;;;69.85;28.95;;;-2.30;99.90;;;;;;5037831;28;20554;-90
2022/03/26 05:44:10;;;;;;;68.88;30.58;;;-2.20;99.90;;;;;;5040612;28;20461;-91
2022/03/26 05:46:37;;;;;;;66.30;28.67;;;-2.10;99.90;;;;;;5037226;28;20512;-93
2022/03/26 05:49:04;;;;;;;72.45;29.88;;;-2.00;99.90;;;;;;5036337;28;20091;-90
2022/03/26 05:51:31;;;;;;;59.17;28.20;;;-1.90;99.90;;;;;;5036976;28;20044;-93
2022/03/26 05:53:57;;;;;;;63.63;29.35;;;-1.80;99.90;;;;;;5036093;28;20053;-91
2022/03/26 05:56:24;;;;;;;66.30;29.30;;;-1.70;99.90;;;;;;5037085;28;20147;-90
2022/03/26 05:58:51;;;;;;;74.13;30.00;;;-1.60;99.90;;;;;;5036897;28;20473;-92
2022/03/26 06:01:17;;;;;;;74.40;31.08;;;-1.50;99.90;;;;;;5036642;28;20545;-92
2022/03/26 06:03:44;;;;;;;69.75;31.13;;;-1.40;99.90;;;;;;5036837;28;20860;-90
2022/03/26 06:06:11;;;;;;;79.60;36.83;;;-1.30;99.90;;;;;;5044114;28;20576;-92
2022/03/26 06:08:38;;;;;;;65.25;30.13;;;-1.20;99.90;;;;;;5056769;28;20053;-92
2022/03/26 06:11:04;;;;;;;58.83;27.98;;;-1.10;99.90;;;;;;5053259;28;20128;-92
2022/03/26 06:13:38;;;;;;;55.13;28.30;;;-1.00;99.90;;;;;;5071167;28;20379;-81
2022/03/26 06:16:05;;;;;;;58.90;27.95;;;-0.90;99.90;;;;;;5062688;28;20044;-82
2022/03/26 06:18:35;;;;;;;56.25;27.52;;;-0.70;99.90;;;;;;5062663;28;20085;-83
2022/03/26 06:21:05;;;;;;;66.30;29.92;;;-0.60;99.90;;;;;;5062623;23;20074;-84
2022/03/26 06:23:32;;;;;;;60.90;28.30;;;-0.30;99.90;;;;;;5041197;28;20152;-84
2022/03/26 06:25:59;;;;;;;45.65;24.63;;;0.30;99.90;;;;;;5040756;28;20116;-84
2022/03/26 06:28:26;;;;;;;48.13;23.77;;;0.80;99.90;;;;;;5039491;28;20128;-85
2022/03/26 06:30:53;;;;;;;49.28;20.83;;;1.60;99.90;;;;;;5050057;28;20104;-84
2022/03/26 06:33:22;;;;;;;39.38;20.58;;;2.30;99.90;;;;;;5050404;28;20092;-84
2022/03/26 06:35:49;;;;;;;40.58;18.77;;;2.50;99.90;;;;;;5051720;28;20148;-84
2022/03/26 06:38:18;;;;;;;45.38;26.35;;;2.90;99.90;;;;;;5050451;28;20049;-84
2022/03/26 06:40:44;;;;;;;40.53;21.80;;;3.00;99.90;;;;;;5050636;28;20103;-83
2022/03/26 06:43:12;;;;;;;36.00;19.55;;;3.50;99.90;;;;;;5051399;28;20084;-83
2022/03/26 06:45:40;;;;;;;31.45;18.33;;;3.60;99.90;;;;;;5052140;28;20081;-80
2022/03/26 06:48:07;;;;;;;43.90;18.63;;;4.00;99.90;;;;;;5052028;28;20053;-79
2022/03/26 06:50:53;;;;;;;40.25;18.92;;;4.40;99.90;;;;;;5051579;28;20049;-80
2022/03/26 06:53:20;;;;;;;40.90;19.33;;;5.00;99.90;;;;;;5051920;28;20114;-79
2022/03/26 06:55:46;;;;;;;33.70;18.88;;;5.20;99.90;;;;;;5052553;28;20139;-79
2022/03/26 06:58:14;;;;;;;37.65;19.58;;;5.30;99.90;;;;;;5051040;28;20064;-79
2022/03/26 07:00:42;;;;;;;36.33;19.88;;;5.40;99.90;;;;;;5051183;28;20467;-79
2022/03/26 07:03:14;;;;;;;37.35;20.95;;;5.40;99.90;;;;;;5052209;28;20122;-80
2022/03/26 07:05:41;;;;;;;33.95;19.77;;;5.60;99.90;;;;;;5052091;28;20080;-80
2022/03/26 07:08:09;;;;;;;38.17;20.35;;;5.70;99.90;;;;;;5052151;28;20156;-79
2022/03/26 07:10:37;;;;;;;45.42;22.00;;;5.80;99.90;;;;;;5052458;28;20396;-79
2022/03/26 07:13:06;;;;;;;42.95;19.95;;;6.20;99.90;;;;;;5051451;28;20084;-79
2022/03/26 07:15:33;;;;;;;41.55;20.38;;;6.60;99.90;;;;;;5052181;28;20041;-79
2022/03/26 07:18:03;;;;;;;40.15;20.60;;;6.80;99.90;;;;;;5052484;28;20135;-79
2022/03/26 07:20:33;;;;;;;40.30;21.10;;;6.90;99.90;;;;;;5052317;28;20045;-79
2022/03/26 07:23:01;;;;;;;44.40;20.48;;;7.00;99.90;;;;;;5052229;28;20053;-79
2022/03/26 07:25:33;;;;;;;42.20;19.15;;;7.00;99.90;;;;;;5039980;28;20141;-79
2022/03/26 07:28:00;;;;;;;46.72;20.42;;;7.20;99.90;;;;;;5041722;28;20050;-81
2022/03/26 07:30:28;;;;;;;65.05;21.38;;;7.90;99.90;;;;;;5040574;28;20057;-79
2022/03/26 07:32:54;;;;;;;68.88;22.02;;;8.60;99.90;;;;;;5041161;28;20045;-79
2022/03/26 07:35:23;;;;;;;49.25;22.25;;;9.60;99.90;;;;;;5040874;28;20084;-79
2022/03/26 07:37:49;;;;;;;45.22;20.60;;;10.40;99.90;;;;;;5037797;28;20128;-79
2022/03/26 07:40:16;;;;;;;50.63;20.98;;;11.50;98.00;;;;;;5037408;28;20056;-79
2022/03/26 07:42:43;;;;;;;44.35;21.23;;;11.90;94.70;;;;;;5038137;28;20498;-79
2022/03/26 07:45:10;;;;;;;52.28;23.20;;;12.50;93.10;;;;;;5037911;28;20494;-79
2022/03/26 07:47:37;;;;;;;40.10;19.70;;;12.50;91.90;;;;;;5036383;28;20092;-78
2022/03/26 07:50:06;;;;;;;51.10;21.73;;;12.90;90.20;;;;;;5036503;28;20435;-79
2022/03/26 07:52:34;;;;;;;43.80;21.65;;;13.10;88.10;;;;;;5036980;28;20501;-78
2022/03/26 07:55:02;;;;;;;42.17;21.77;;;13.70;85.70;;;;;;5037386;28;20042;-79
2022/03/26 07:57:29;;;;;;;42.00;22.00;;;14.60;81.60;;;;;;5037539;28;20074;-80
2022/03/26 07:59:56;;;;;;;45.95;21.15;;;15.30;78.40;;;;;;5037209;28;20533;-79
2022/03/26 08:02:24;;;;;;;41.05;21.30;;;15.00;77.40;;;;;;5034888;28;20136;-79
2022/03/26 08:04:51;;;;;;;34.20;21.02;;;15.00;77.40;;;;;;5035222;28;20454;-79
2022/03/26 08:07:20;;;;;;;55.53;21.17;;;15.40;78.60;;;;;;5036317;28;20100;-79
2022/03/26 08:09:46;;;;;;;48.10;21.98;;;16.20;75.80;;;;;;5036210;28;20363;-79
2022/03/26 08:12:14;;;;;;;63.45;20.42;;;17.40;72.40;;;;;;5034558;28;20132;-79
2022/03/26 08:14:41;;;;;;;68.15;23.77;;;17.70;70.00;;;;;;5036713;28;20469;-79
2022/03/26 08:17:09;;;;;;;37.00;20.08;;;18.10;67.60;;;;;;5036703;28;20085;-79
2022/03/26 08:19:36;;;;;;;38.17;20.17;;;18.20;66.60;;;;;;5034837;28;20132;-79
2022/03/26 08:22:04;;;;;;;32.22;19.48;;;18.40;65.60;;;;;;5035439;28;20060;-80
2022/03/26 08:24:34;;;;;;;42.17;22.23;;;19.10;65.50;;;;;;5035343;28;20406;-79
2022/03/26 08:27:02;;;;;;;40.72;21.27;;;19.80;62.50;;;;;;5036376;28;20461;-81
2022/03/26 08:29:28;;;;;;;70.15;22.65;;;20.40;62.00;;;;;;5035590;28;20136;-80
2022/03/26 08:31:55;;;;;;;48.13;21.33;;;20.30;59.90;;;;;;5034831;28;20081;-79
2022/03/26 08:34:24;;;;;;;50.75;22.67;;;19.50;60.20;;;;;;5034686;28;20483;-79
2022/03/26 08:36:51;;;;;;;46.85;24.00;;;19.60;60.40;;;;;;5035060;28;20159;-77
2022/03/26 08:39:20;;;;;;;47.15;26.60;;;20.40;59.30;;;;;;5034011;28;20053;-77
2022/03/26 08:41:46;;;;;;;55.22;26.20;;;20.70;58.40;;;;;;5039760;28;20129;-82
2022/03/26 08:44:13;;;;;;;49.67;28.52;;;20.80;57.50;;;;;;5038654;28;20081;-82
2022/03/26 08:46:40;;;;;;;43.05;23.67;;;21.70;55.90;;;;;;5031574;28;20053;-82
2022/03/26 08:49:07;;;;;;;48.47;21.65;;;23.00;54.60;;;;;;5022629;28;20467;-82
2022/03/26 08:51:35;;;;;;;64.25;23.70;;;23.00;54.00;;;;;;5018244;28;20057;-76
2022/03/26 08:54:03;;;;;;;47.42;21.85;;;22.80;54.30;;;;;;5014636;28;20124;-78
2022/03/26 08:56:30;;;;;;;41.17;21.35;;;21.80;54.60;;;;;;5016499;28;20053;-78
2022/03/26 08:58:57;;;;;;;36.40;22.20;;;21.50;54.60;;;;;;5014960;28;20129;-78
2022/03/26 09:01:24;;;;;;;40.00;21.80;;;20.90;55.90;;;;;;5014919;28;20132;-78
2022/03/26 09:03:51;;;;;;;37.58;20.85;;;21.30;55.60;;;;;;5015982;28;20089;-78
2022/03/26 09:06:18;;;;;;;31.17;21.13;;;21.70;55.20;;;;;;5014252;28;20045;-78
2022/03/26 09:08:45;;;;;;;31.30;19.83;;;22.00;54.30;;;;;;5023070;28;20557;-78
2022/03/26 09:11:12;;;;;;;35.88;18.73;;;21.80;56.20;;;;;;5019949;28;20045;-78
2022/03/26 09:13:41;;;;;;;37.58;19.50;;;22.30;56.20;;;;;;5021344;28;20050;-76
2022/03/26 09:16:08;;;;;;;33.88;18.80;;;22.20;55.30;;;;;;5018224;28;20053;-81
2022/03/26 09:18:35;;;;;;;30.08;17.77;;;23.00;54.50;;;;;;5025955;28;20084;-80
2022/03/26 09:21:03;;;;;;;30.50;17.65;;;23.10;54.60;;;;;;5022616;28;20143;-82
2022/03/26 09:23:32;;;;;;;34.45;20.60;;;24.10;53.20;;;;;;5015301;28;20491;-79
2022/03/26 09:26:04;;;;;;;38.28;19.55;;;24.00;51.30;;;;;;5014781;28;20138;-78
2022/03/26 09:28:31;;;;;;;30.50;20.60;;;24.30;51.20;;;;;;5013252;28;20045;-78
2022/03/26 09:30:58;;;;;;;31.23;20.23;;;23.90;50.30;;;;;;5013188;28;20058;-79
2022/03/26 09:33:25;;;;;;;40.10;22.02;;;23.80;51.00;;;;;;5014642;28;20499;-78
2022/03/26 09:35:54;;;;;;;32.05;19.50;;;23.60;51.20;;;;;;5015181;28;20128;-78
2022/03/26 09:38:25;;;;;;;30.65;20.67;;;24.10;51.70;;;;;;5013686;28;20144;-77
2022/03/26 09:40:52;;;;;;;35.00;19.73;;;26.30;49.90;;;;;;5015469;28;20080;-78
2022/03/26 09:43:20;;;;;;;37.38;20.63;;;25.50;48.20;;;;;;5014082;28;20058;-78
2022/03/26 09:45:47;;;;;;;37.15;21.95;;;25.10;49.10;;;;;;5015188;28;20141;-78
2022/03/26 09:48:14;;;;;;;34.72;20.95;;;23.90;50.00;;;;;;5013808;28;20133;-78
2022/03/26 09:50:52;;;;;;;34.03;19.70;;;24.10;49.70;;;;;;5013838;28;20495;-78
2022/03/26 09:53:20;;;;;;;32.75;20.25;;;23.60;50.70;;;;;;5013936;28;20136;-78
2022/03/26 09:55:47;;;;;;;33.42;19.27;;;22.90;51.50;;;;;;5014335;28;20088;-78
2022/03/26 09:58:14;;;;;;;39.72;18.38;;;22.50;51.90;;;;;;5013774;28;20128;-77
2022/03/26 10:00:47;;;;;;;33.00;19.23;;;22.50;52.80;;;;;;5014340;28;20136;-78
2022/03/26 10:03:16;;;;;;;39.42;21.00;;;22.30;52.30;;;;;;5014736;28;20500;-78
2022/03/26 10:05:46;;;;;;;32.20;19.70;;;22.20;52.20;;;;;;5014619;28;20103;-79
2022/03/26 10:08:21;;;;;;;35.95;19.10;;;22.40;52.30;;;;;;5016144;28;20085;-77
2022/03/26 10:10:52;;;;;;;30.30;20.40;;;22.60;52.70;;;;;;5013386;28;20140;-77
2022/03/26 10:13:40;;;;;;;30.88;20.48;;;22.10;52.70;;;;;;5012759;28;20046;-79
2022/03/26 10:16:10;;;;;;;30.77;20.02;;;22.60;52.70;;;;;;5012768;28;20073;-78
2022/03/26 10:18:44;;;;;;;36.08;20.42;;;22.40;52.50;;;;;;5014396;28;20056;-77
2022/03/26 10:21:20;;;;;;;33.45;21.63;;;23.00;52.50;;;;;;5012565;28;20054;-78
2022/03/26 10:23:53;;;;;;;32.47;21.80;;;22.40;53.50;;;;;;5012570;28;20474;-78
2022/03/26 10:26:23;;;;;;;31.70;20.95;;;22.30;54.00;;;;;;5015714;28;20088;-81
2022/03/26 10:28:51;;;;;;;28.25;19.58;;;24.40;52.60;;;;;;5015283;28;20050;-81
2022/03/26 10:34:20;;;;;;;34.40;22.10;;;25.40;48.10;;;;;;5015180;28;20515;-81
2022/03/26 10:36:58;;;;;;;29.40;20.67;;;25.00;49.00;;;;;;5014717;28;20046;-82
2022/03/26 10:39:26;;;;;;;34.55;22.20;;;24.60;50.00;;;;;;5014316;28;20073;-81
2022/03/26 10:41:57;;;;;;;34.42;19.55;;;24.10;51.10;;;;;;5014506;28;20065;-82
2022/03/26 10:44:28;;;;;;;33.90;20.40;;;24.50;49.20;;;;;;5015072;28;20077;-81
2022/03/26 10:47:01;;;;;;;31.77;18.98;;;24.00;49.50;;;;;;5014065;28;20050;-81
2022/03/26 10:49:30;;;;;;;33.60;21.27;;;25.70;49.30;;;;;;5012823;28;20077;-81
2022/03/26 10:52:04;;;;;;;31.17;19.20;;;23.50;50.80;;;;;;5014207;28;20511;-81
2022/03/26 10:54:33;;;;;;;30.27;19.88;;;24.70;49.50;;;;;;5015882;28;20124;-82
2022/03/26 10:57:01;;;;;;;29.88;19.83;;;25.60;49.40;;;;;;5015275;28;20077;-80
2022/03/26 10:59:29;;;;;;;29.70;19.58;;;24.40;49.50;;;;;;5017707;28;20053;-82
2022/03/26 11:01:59;;;;;;;30.48;19.88;;;24.80;48.90;;;;;;5020346;28;20570;-81
2022/03/26 11:04:28;;;;;;;32.97;19.45;;;23.70;49.40;;;;;;5021766;28;20056;-82
2022/03/26 11:06:56;;;;;;;34.05;20.75;;;23.10;51.40;;;;;;5022598;28;20136;-82
2022/03/26 11:09:25;;;;;;;32.30;20.17;;;23.50;51.60;;;;;;5020337;28;20054;-82
2022/03/26 11:11:52;;;;;;;31.92;20.10;;;23.10;51.90;;;;;;5019541;28;20565;-81
2022/03/26 11:14:27;;;;;;;35.10;16.90;;;23.30;50.90;;;;;;5020338;28;20046;-82
2022/03/26 11:17:22;;;;;;;25.80;16.80;;;23.90;50.60;;;;;;5019389;28;20046;-82
2022/03/26 11:20:19;;;;;;;29.73;16.73;;;25.50;49.50;;;;;;5020985;28;20050;-82
2022/03/26 11:23:02;;;;;;;26.15;17.25;;;26.00;47.20;;;;;;5019290;28;20050;-83
2022/03/26 11:25:55;;;;;;;29.52;16.95;;;25.80;46.50;;;;;;5018225;28;20539;-82
2022/03/26 11:28:36;;;;;;;23.88;16.80;;;27.00;46.10;;;;;;5017986;28;20100;-82
2022/03/26 11:31:13;;;;;;;26.10;17.45;;;25.30;46.80;;;;;;5018186;28;20472;-81
2022/03/26 11:33:40;;;;;;;28.80;17.17;;;25.30;47.70;;;;;;5018489;28;20046;-81
2022/03/26 11:36:08;;;;;;;24.10;15.95;;;25.80;47.30;;;;;;5017710;28;20153;-82
2022/03/26 11:38:37;;;;;;;26.35;16.58;;;24.10;49.50;;;;;;5017991;28;20050;-82
2022/03/26 11:41:06;;;;;;;27.65;16.65;;;24.50;48.90;;;;;;5017315;28;20056;-79
2022/03/26 11:43:42;;;;;;;24.63;16.35;;;25.00;48.00;;;;;;5016790;28;20054;-78
2022/03/26 11:52:28;;;;;;;27.08;16.30;;;24.60;49.10;;;;;;5017875;28;20132;-78
2022/03/26 11:55:12;;;;;;;28.30;16.77;;;24.00;48.60;;;;;;5016128;28;20129;-78
2022/03/26 11:57:39;;;;;;;;;;;24.80;48.20;;;;;;5017131;28;20042;-79
2022/03/26 12:00:18;;;;;;;29.05;17.67;;;26.10;47.50;;;;;;5016643;28;19975;-78
2022/03/26 12:02:51;;;;;;;21.98;16.77;;;25.20;47.30;;;;;;5016834;28;20096;-79
2022/03/26 12:08:35;;;;;;;25.90;17.13;;;23.00;50.30;;;;;;5018566;28;19957;-79
2022/03/26 12:11:02;;;;;;;27.77;17.70;;;21.90;52.50;;;;;;5016820;28;20466;-78
2022/03/26 12:13:32;;;;;;;30.27;18.70;;;21.30;53.30;;;;;;5017102;28;20045;-78
2022/03/26 12:16:04;;;;;;;27.42;17.13;;;21.50;52.80;;;;;;5016236;28;20591;-78
2022/03/26 12:18:38;;;;;;;33.72;17.58;;;22.60;51.60;;;;;;5016758;28;20105;-78
2022/03/26 12:21:22;;;;;;;27.70;17.30;;;22.80;50.60;;;;;;5018834;28;20465;-79
2022/03/26 12:23:50;;;;;;;27.33;17.95;;;23.10;50.40;;;;;;5018919;28;20427;-78
2022/03/26 12:26:16;;;;;;;27.33;17.27;;;22.70;49.90;;;;;;5016955;28;20550;-79
2022/03/26 12:28:43;;;;;;;29.42;17.35;;;23.80;50.40;;;;;;5017063;28;20081;-78
2022/03/26 12:31:17;;;;;;;26.75;15.93;;;24.20;48.80;;;;;;5018343;28;20053;-79
2022/03/26 12:33:46;;;;;;;25.98;17.15;;;24.30;48.40;;;;;;5020823;28;20049;-79
2022/03/26 12:36:15;;;;;;;28.92;16.65;;;24.00;47.70;;;;;;5020826;28;20120;-80
2022/03/26 12:38:52;;;;;;;31.63;15.80;;;24.10;48.20;;;;;;5021960;28;20042;-79
2022/03/26 12:41:20;;;;;;;25.33;14.65;;;24.70;48.60;;;;;;5019329;28;20053;-78
2022/03/26 12:44:00;;;;;;;25.45;15.85;;;24.40;46.40;;;;;;5022572;28;20477;-77
2022/03/26 12:46:34;;;;;;;27.23;17.15;;;24.10;47.80;;;;;;5011353;28;20118;-81
2022/03/26 12:49:19;;;;;;;31.73;17.33;;;23.70;49.10;;;;;;5006096;28;20056;-81
2022/03/26 12:51:53;;;;;;;42.35;17.67;;;23.10;49.80;;;;;;5007582;28;20054;-81